createdAt,value
2022-12-18T00:03:17.131Z,19.02
2022-12-18T00:06:40.979Z,17.35
2022-12-18T00:10:04.900Z,20.38
2022-12-18T00:13:28.989Z,18.85
2022-12-18T00:17:00.181Z,17.70
2022-12-18T00:20:27.216Z,19.48
2022-12-18T00:23:51.670Z,16.08
2022-12-18T00:27:14.405Z,19.95
2022-12-18T00:30:36.622Z,19.88
2022-12-18T00:33:59.355Z,19.95
2022-12-18T00:37:25.687Z,17.20
2022-12-18T00:40:50.385Z,23.77
2022-12-18T00:44:16.227Z,17.67
2022-12-18T00:47:49.869Z,21.20
2022-12-18T00:51:12.229Z,23.38
2022-12-18T00:54:35.144Z,21.40
2022-12-18T00:57:58.318Z,20.73
2022-12-18T01:01:23.650Z,18.40
2022-12-18T01:04:45.757Z,19.75
2022-12-18T01:08:07.732Z,17.55
2022-12-18T01:11:30.720Z,21.85
2022-12-18T01:14:53.884Z,21.92
2022-12-18T01:18:18.097Z,16.23
2022-12-18T01:21:41.825Z,20.63
2022-12-18T01:25:05.272Z,16.25
2022-12-18T01:28:30.755Z,18.00
2022-12-18T01:31:56.516Z,17.38
2022-12-18T01:35:19.108Z,17.50
2022-12-18T01:38:42.326Z,22.73
2022-12-18T01:42:04.798Z,19.92
2022-12-18T01:45:30.358Z,20.58
2022-12-18T01:49:00.005Z,20.73
2022-12-18T01:55:53.876Z,18.85
2022-12-18T01:59:16.789Z,20.60
2022-12-18T02:02:39.965Z,18.35
2022-12-18T02:06:17.155Z,16.95
2022-12-18T02:09:51.585Z,16.90
2022-12-18T02:13:31.534Z,16.05
2022-12-18T02:16:58.918Z,19.75
2022-12-18T02:20:26.762Z,15.55
2022-12-18T02:24:14.838Z,17.05
2022-12-18T02:27:39.238Z,16.25
2022-12-18T02:31:05.744Z,15.75
2022-12-18T02:34:31.406Z,15.77
2022-12-18T02:37:55.530Z,16.15
2022-12-18T02:41:19.700Z,16.92
2022-12-18T02:44:54.745Z,23.17
2022-12-18T02:48:34.039Z,17.00
2022-12-18T02:52:25.762Z,15.57
2022-12-18T02:56:10.176Z,18.67
2022-12-18T03:00:11.229Z,15.18
2022-12-18T03:04:09.858Z,15.18
2022-12-18T03:07:43.333Z,11.50
2022-12-18T03:11:10.534Z,16.90
2022-12-18T03:14:37.782Z,14.15
2022-12-18T03:18:09.403Z,13.98
2022-12-18T03:21:40.229Z,20.02
2022-12-18T03:25:09.031Z,18.45
2022-12-18T03:32:11.452Z,13.98
2022-12-18T03:35:39.503Z,12.73
2022-12-18T03:39:03.741Z,13.23
2022-12-18T03:43:02.519Z,13.75
2022-12-18T03:46:54.016Z,13.15
2022-12-18T03:50:31.893Z,11.65
2022-12-18T03:54:06.155Z,13.05
2022-12-18T03:57:51.076Z,14.65
2022-12-18T04:01:18.288Z,12.75
2022-12-18T04:04:43.662Z,15.90
2022-12-18T04:08:16.245Z,12.77
2022-12-18T04:11:49.272Z,11.63
2022-12-18T04:15:29.835Z,17.25
2022-12-18T04:19:06.939Z,12.43
2022-12-18T04:22:37.144Z,19.77
2022-12-18T04:26:06.446Z,14.82
2022-12-18T04:29:52.439Z,17.88
2022-12-18T04:33:15.961Z,15.63
2022-12-18T04:36:39.481Z,11.35
2022-12-18T04:40:03.826Z,13.65
2022-12-18T04:43:34.928Z,15.10
2022-12-18T04:47:01.088Z,11.73
2022-12-18T04:50:23.441Z,15.00
2022-12-18T04:53:46.267Z,10.82
2022-12-18T04:57:08.817Z,11.32
2022-12-18T05:00:31.265Z,17.27
2022-12-18T05:03:53.585Z,11.02
2022-12-18T05:07:16.204Z,12.00
2022-12-18T05:10:39.718Z,13.60
2022-12-18T05:14:03.159Z,11.38
2022-12-18T05:17:26.467Z,13.73
2022-12-18T05:20:49.291Z,13.00
2022-12-18T05:24:12.179Z,12.00
2022-12-18T05:27:35.288Z,12.93
2022-12-18T05:31:01.140Z,10.95
2022-12-18T05:34:23.521Z,10.85
2022-12-18T05:37:45.645Z,10.85
2022-12-18T05:41:08.119Z,12.50
2022-12-18T05:44:30.044Z,9.10
2022-12-18T05:47:52.054Z,11.02
2022-12-18T05:51:21.006Z,11.80
2022-12-18T05:54:46.550Z,15.00
2022-12-18T05:58:12.708Z,10.07
2022-12-18T06:01:35.333Z,13.65
2022-12-18T06:04:58.155Z,8.55
2022-12-18T06:08:21.566Z,9.98
2022-12-18T06:11:44.915Z,9.18
2022-12-18T06:15:08.543Z,10.75
2022-12-18T06:18:38.464Z,9.25
2022-12-18T06:22:10.613Z,13.82
2022-12-18T06:25:34.512Z,10.43
2022-12-18T06:29:11.507Z,14.27
2022-12-18T06:32:34.811Z,9.88
2022-12-18T06:36:06.882Z,11.35
2022-12-18T06:39:33.702Z,16.25
2022-12-18T06:42:56.431Z,11.52
2022-12-18T06:46:18.761Z,13.93
2022-12-18T06:49:41.084Z,8.88
2022-12-18T06:53:03.110Z,44.95
2022-12-18T06:56:25.864Z,37.42
2022-12-18T06:59:47.770Z,43.83
2022-12-18T07:03:10.142Z,24.45
2022-12-18T07:06:32.234Z,15.45
2022-12-18T07:09:54.264Z,9.75
2022-12-18T07:13:17.742Z,13.77
2022-12-18T07:16:39.797Z,12.65
2022-12-18T07:20:02.306Z,13.55
2022-12-18T07:23:28.065Z,11.60
2022-12-18T07:26:54.886Z,11.35
2022-12-18T07:30:19.059Z,12.55
2022-12-18T07:33:53.242Z,12.25
2022-12-18T07:37:16.765Z,17.65
2022-12-18T07:40:39.563Z,9.93
2022-12-18T07:44:02.033Z,15.55
2022-12-18T07:47:24.002Z,19.63
2022-12-18T07:50:46.071Z,20.13
2022-12-18T07:54:08.030Z,16.30
2022-12-18T08:01:17.162Z,18.80
2022-12-18T08:04:42.149Z,15.60
2022-12-18T08:08:09.226Z,23.48
2022-12-18T08:11:33.284Z,20.67
2022-12-18T08:15:13.036Z,21.95
2022-12-18T08:18:37.726Z,19.42
2022-12-18T08:22:00.155Z,23.33
2022-12-18T08:25:22.220Z,21.35
2022-12-18T08:28:45.938Z,22.40
2022-12-18T08:32:09.894Z,20.75
2022-12-18T08:35:46.194Z,17.40
2022-12-18T08:39:12.807Z,24.90
2022-12-18T08:42:57.068Z,21.98
2022-12-18T08:46:21.575Z,24.10
2022-12-18T08:49:47.265Z,36.35
2022-12-18T08:53:11.021Z,27.35
2022-12-18T08:56:34.712Z,28.13
2022-12-18T08:59:57.915Z,25.67
2022-12-18T09:03:23.685Z,28.02
2022-12-18T09:06:50.103Z,26.40
2022-12-18T09:10:17.323Z,28.30
2022-12-18T09:13:43.456Z,29.25
2022-12-18T09:17:06.050Z,29.83
2022-12-18T09:20:29.433Z,29.67
2022-12-18T09:23:55.814Z,29.67
2022-12-18T09:27:19.025Z,32.25
2022-12-18T09:30:46.131Z,28.35
2022-12-18T09:34:11.994Z,30.10
2022-12-18T09:37:37.001Z,30.63
2022-12-18T09:41:07.454Z,29.02
2022-12-18T09:44:32.597Z,32.10
2022-12-18T09:47:57.556Z,29.67
2022-12-18T09:51:41.198Z,28.85
2022-12-18T09:55:12.444Z,31.05
2022-12-18T09:58:55.997Z,28.27
2022-12-18T10:02:28.259Z,27.08
2022-12-18T10:06:09.035Z,30.30
2022-12-18T10:13:27.570Z,29.27
2022-12-18T10:17:32.285Z,30.00
2022-12-18T10:21:05.092Z,31.88
2022-12-18T10:24:40.449Z,35.78
2022-12-18T10:28:12.834Z,33.42
2022-12-18T10:31:35.827Z,32.90
2022-12-18T10:35:00.766Z,32.08
2022-12-18T10:38:28.394Z,31.55
2022-12-18T10:41:53.342Z,30.75
2022-12-18T10:45:22.007Z,28.83
2022-12-18T10:48:53.713Z,28.80
2022-12-18T10:52:24.433Z,27.35
2022-12-18T10:55:48.868Z,28.10
2022-12-18T10:59:14.541Z,24.42
2022-12-18T11:02:40.117Z,28.80
2022-12-18T11:06:24.230Z,25.77
2022-12-18T11:10:02.683Z,25.13
2022-12-18T11:13:29.176Z,22.33
2022-12-18T11:17:24.200Z,22.52
2022-12-18T11:20:38.894Z,34.53
2022-12-18T11:24:01.910Z,17.60
2022-12-18T11:27:36.904Z,17.08
2022-12-18T11:31:21.175Z,16.65
2022-12-18T11:34:58.913Z,13.10
2022-12-18T11:38:39.128Z,13.05
2022-12-18T11:42:24.027Z,11.77
2022-12-18T11:46:19.181Z,11.48
2022-12-18T11:49:43.996Z,14.48
2022-12-18T11:53:15.718Z,13.65
2022-12-18T11:56:51.564Z,13.90
2022-12-18T12:00:53.227Z,12.15
2022-12-18T12:04:34.625Z,10.48
2022-12-18T12:08:26.078Z,11.60
2022-12-18T12:11:48.101Z,13.65
2022-12-18T12:15:47.268Z,12.30
2022-12-18T12:19:39.145Z,11.48
2022-12-18T12:23:15.730Z,14.70
2022-12-18T12:27:01.656Z,13.18
2022-12-18T12:30:42.389Z,19.30
2022-12-18T12:38:19.794Z,12.20
2022-12-18T12:42:02.293Z,10.43
2022-12-18T12:45:37.400Z,12.43
2022-12-18T12:49:16.973Z,9.85
2022-12-18T12:52:44.899Z,14.70
2022-12-18T12:56:07.925Z,10.38
2022-12-18T13:00:15.059Z,9.35
2022-12-18T13:03:49.121Z,13.13
2022-12-18T13:07:49.167Z,12.73
2022-12-18T13:12:15.840Z,14.85
2022-12-18T13:16:08.214Z,15.27
2022-12-18T13:19:30.771Z,14.73
2022-12-18T13:22:54.095Z,11.32
2022-12-18T13:26:24.756Z,12.10
2022-12-18T13:29:53.640Z,17.40
2022-12-18T13:33:21.099Z,10.25
2022-12-18T13:36:43.623Z,12.13
2022-12-18T13:40:51.935Z,22.13
2022-12-18T13:44:23.221Z,14.05
2022-12-18T13:47:45.916Z,12.05
2022-12-18T13:51:12.076Z,38.90
2022-12-18T13:54:40.416Z,13.82
2022-12-18T13:58:08.264Z,16.65
2022-12-18T14:01:34.991Z,10.05
2022-12-18T14:04:57.379Z,14.85
2022-12-18T14:08:20.854Z,13.90
2022-12-18T14:11:49.389Z,10.00
2022-12-18T14:15:35.994Z,13.38
2022-12-18T14:19:08.351Z,11.32
2022-12-18T14:22:37.339Z,10.48
2022-12-18T14:26:05.436Z,12.43
2022-12-18T14:29:31.948Z,12.20
2022-12-18T14:33:10.773Z,12.82
2022-12-18T14:36:32.903Z,16.10
2022-12-18T14:40:02.141Z,17.40
2022-12-18T14:43:32.366Z,13.32
2022-12-18T14:46:54.549Z,13.45
2022-12-18T14:50:23.270Z,16.67
2022-12-18T14:54:01.358Z,14.82
2022-12-18T14:57:25.076Z,16.20
2022-12-18T15:00:47.301Z,14.13
2022-12-18T15:04:30.844Z,13.90
2022-12-18T15:07:55.636Z,16.05
2022-12-18T15:11:34.906Z,14.07
2022-12-18T15:14:56.859Z,14.65
2022-12-18T15:18:33.379Z,18.08
2022-12-18T15:21:59.115Z,17.05
2022-12-18T15:25:38.332Z,22.73
2022-12-18T15:29:00.979Z,17.17
2022-12-18T15:32:23.144Z,20.52
2022-12-18T15:35:47.201Z,18.67
2022-12-18T15:39:13.164Z,17.55
2022-12-18T15:42:53.480Z,19.40
2022-12-18T15:46:18.206Z,16.45
2022-12-18T15:49:40.583Z,14.60
2022-12-18T15:53:02.756Z,16.58
2022-12-18T15:56:44.644Z,21.20
2022-12-18T16:00:08.089Z,18.80
2022-12-18T16:03:30.889Z,19.23
2022-12-18T16:10:36.674Z,32.88
2022-12-18T16:14:01.260Z,34.25
2022-12-18T16:17:24.155Z,34.83
2022-12-18T16:20:47.604Z,42.17
2022-12-18T16:24:23.133Z,35.42
2022-12-18T16:27:45.546Z,29.58
2022-12-18T16:31:10.627Z,32.97
2022-12-18T16:34:35.999Z,37.10
2022-12-18T16:37:58.674Z,34.42
2022-12-18T16:41:33.488Z,37.88
2022-12-18T16:44:55.779Z,36.05
2022-12-18T16:48:18.354Z,37.38
2022-12-18T16:51:40.866Z,39.00
2022-12-18T16:55:03.688Z,33.72
2022-12-18T16:58:25.867Z,44.30
2022-12-18T17:01:50.016Z,36.60
2022-12-18T17:05:13.698Z,38.05
2022-12-18T17:08:37.033Z,36.28
2022-12-18T17:12:04.191Z,39.72
2022-12-18T17:15:27.675Z,41.38
2022-12-18T17:18:50.703Z,32.03
2022-12-18T17:22:12.839Z,37.33
2022-12-18T17:25:35.557Z,32.95
2022-12-18T17:28:59.595Z,39.35
2022-12-18T17:32:21.927Z,30.85
2022-12-18T17:35:44.088Z,35.13
2022-12-18T17:39:07.358Z,31.20
2022-12-18T17:42:29.633Z,27.63
2022-12-18T17:45:51.929Z,25.23
2022-12-18T17:49:14.657Z,23.17
2022-12-18T17:52:36.714Z,22.98
2022-12-18T17:56:05.972Z,21.33
2022-12-18T17:59:33.169Z,30.67
2022-12-18T18:02:55.825Z,22.92
2022-12-18T18:06:18.143Z,20.73
2022-12-18T18:09:40.461Z,25.73
2022-12-18T18:13:22.130Z,19.35
2022-12-18T18:16:53.231Z,20.30
2022-12-18T18:20:22.664Z,25.15
2022-12-18T18:23:45.688Z,18.35
2022-12-18T18:27:11.135Z,23.38
2022-12-18T18:30:35.951Z,17.73
2022-12-18T18:33:58.685Z,18.30
2022-12-18T18:37:20.944Z,16.13
2022-12-18T18:40:43.097Z,17.20
2022-12-18T18:44:05.811Z,16.88
2022-12-18T18:47:30.512Z,20.23
2022-12-18T18:51:03.076Z,21.15
2022-12-18T18:54:26.335Z,18.35
2022-12-18T18:57:48.860Z,17.10
2022-12-18T19:01:20.750Z,17.83
2022-12-18T19:04:46.722Z,20.55
2022-12-18T19:08:10.676Z,22.65
2022-12-18T19:11:51.721Z,20.67
2022-12-18T19:15:14.199Z,15.20
2022-12-18T19:18:38.641Z,22.02
2022-12-18T19:22:01.742Z,18.60
2022-12-18T19:25:37.557Z,18.52
2022-12-18T19:29:07.583Z,16.27
2022-12-18T19:32:29.883Z,16.10
2022-12-18T19:36:00.064Z,17.70
2022-12-18T19:39:22.548Z,15.60
2022-12-18T19:42:48.148Z,21.45
2022-12-18T19:46:14.747Z,14.40
2022-12-18T19:49:38.793Z,13.23
2022-12-18T19:53:03.891Z,19.20
2022-12-18T19:56:32.796Z,15.10
2022-12-18T19:59:54.972Z,18.73
2022-12-18T20:03:25.450Z,30.25
2022-12-18T20:06:54.180Z,27.85
2022-12-18T20:10:16.664Z,25.42
2022-12-18T20:13:44.508Z,27.58
2022-12-18T20:17:07.053Z,30.00
2022-12-18T20:20:29.827Z,32.63
2022-12-18T20:23:53.518Z,32.35
2022-12-18T20:27:19.371Z,26.00
2022-12-18T20:30:41.791Z,23.02
2022-12-18T20:34:04.989Z,25.40
2022-12-18T20:37:28.863Z,28.52
2022-12-18T20:40:52.852Z,26.35
2022-12-18T20:44:23.174Z,32.30
2022-12-18T20:47:46.111Z,36.05
2022-12-18T20:51:11.483Z,23.88
2022-12-18T20:54:42.479Z,26.00
2022-12-18T20:58:05.051Z,27.02
2022-12-18T21:01:29.133Z,29.10
2022-12-18T21:04:52.780Z,24.50
2022-12-18T21:08:15.537Z,24.95
2022-12-18T21:11:57.134Z,27.95
2022-12-18T21:15:26.782Z,28.35
2022-12-18T21:18:53.404Z,23.15
2022-12-18T21:22:28.627Z,22.08
2022-12-18T21:25:55.952Z,23.25
2022-12-18T21:29:24.127Z,23.98
2022-12-18T21:32:46.252Z,27.38
2022-12-18T21:36:09.996Z,28.52
2022-12-18T21:39:35.912Z,28.08
2022-12-18T21:43:17.778Z,25.67
2022-12-18T21:46:54.533Z,22.90
2022-12-18T21:50:19.510Z,23.88
2022-12-18T21:53:42.409Z,22.08
2022-12-18T21:57:06.387Z,20.88
2022-12-18T22:00:28.375Z,30.17
2022-12-18T22:03:50.389Z,31.73
2022-12-18T22:07:14.083Z,25.77
2022-12-18T22:10:36.820Z,22.52
2022-12-18T22:13:59.058Z,18.90
2022-12-18T22:17:21.001Z,20.05
2022-12-18T22:20:43.417Z,23.35
2022-12-18T22:24:06.880Z,19.45
2022-12-18T22:27:28.877Z,19.45
2022-12-18T22:30:52.499Z,20.60
2022-12-18T22:34:23.245Z,16.40
2022-12-18T22:37:45.505Z,20.10
2022-12-18T22:41:07.515Z,16.23
2022-12-18T22:44:29.574Z,17.20
2022-12-18T22:47:51.664Z,18.60
2022-12-18T22:51:20.984Z,17.50
2022-12-18T22:54:43.199Z,14.00
2022-12-18T22:58:05.144Z,16.27
2022-12-18T23:01:29.330Z,16.08
2022-12-18T23:04:52.057Z,17.08
2022-12-18T23:08:14.072Z,15.18
2022-12-18T23:11:36.027Z,16.48
2022-12-18T23:14:58.121Z,16.08
2022-12-18T23:18:20.237Z,16.48
2022-12-18T23:21:42.231Z,18.27
2022-12-18T23:25:04.438Z,16.88
2022-12-18T23:28:26.418Z,15.85
2022-12-18T23:31:51.370Z,20.45
2022-12-18T23:35:14.279Z,22.17
2022-12-18T23:38:38.382Z,16.50
2022-12-18T23:42:00.915Z,16.15
2022-12-18T23:45:23.062Z,19.85
2022-12-18T23:48:45.608Z,20.17
2022-12-18T23:52:07.639Z,16.83
2022-12-18T23:55:29.704Z,23.98
2022-12-18T23:58:52.867Z,17.27
